Time;durP1;ratioP1;P1;durP2;ratioP2;P2;SDS_P1;SDS_P2;PMS_P1;PMS_P2;Temp;Humidity;BMP_temperature;BMP_pressure;BME280_temperature;BME280_humidity;BME280_pressure;Samples;Min_cycle;Max_cycle;Signal;HPM_P1;HPM_P2
2022/07/31 00:01:24;;;;;;;15.97;11.90;;;16.00;99.90;;;;;;4187695;28;20262;-79
2022/07/31 00:03:26;;;;;;;16.33;13.63;;;16.00;99.90;;;;;;4185605;28;20328;-79
2022/07/31 00:05:28;;;;;;;14.87;12.40;;;16.00;99.90;;;;;;4187274;28;20210;-79
2022/07/31 00:07:31;;;;;;;17.13;13.10;;;16.00;99.90;;;;;;4186815;28;20215;-79
2022/07/31 00:09:33;;;;;;;17.03;12.63;;;16.00;99.90;;;;;;4185675;28;20218;-78
2022/07/31 00:11:34;;;;;;;17.70;12.90;;;16.00;99.90;;;;;;4170076;28;20242;-78
2022/07/31 00:13:36;;;;;;;19.07;14.17;;;15.90;99.90;;;;;;4191683;28;20318;-78
2022/07/31 00:15:38;;;;;;;16.90;13.77;;;15.90;99.90;;;;;;4172105;28;20224;-78
2022/07/31 00:17:41;;;;;;;16.50;13.03;;;15.90;99.90;;;;;;4187992;28;20295;-80
2022/07/31 00:19:43;;;;;;;18.13;13.43;;;15.80;99.90;;;;;;4186596;28;20708;-78
2022/07/31 00:21:45;;;;;;;15.27;12.63;;;15.90;99.90;;;;;;4182722;28;20213;-78
2022/07/31 00:23:48;;;;;;;16.83;13.47;;;15.80;99.90;;;;;;4173567;28;20847;-79
2022/07/31 00:25:50;;;;;;;16.70;12.83;;;15.80;99.90;;;;;;4187951;28;20574;-79
2022/07/31 00:27:52;;;;;;;17.43;12.57;;;15.80;99.90;;;;;;4189181;28;20243;-80
2022/07/31 00:29:54;;;;;;;16.40;13.17;;;15.80;99.90;;;;;;4173262;28;20217;-80
2022/07/31 00:31:56;;;;;;;16.53;12.33;;;15.80;99.90;;;;;;4183721;28;21071;-81
2022/07/31 00:33:58;;;;;;;17.20;13.73;;;15.80;99.90;;;;;;4185772;28;20233;-79
2022/07/31 00:36:00;;;;;;;17.50;13.83;;;15.70;99.90;;;;;;4185625;28;20242;-78
2022/07/31 00:38:02;;;;;;;16.37;13.03;;;15.70;99.90;;;;;;4184220;28;20315;-78
2022/07/31 00:40:07;;;;;;;16.60;13.33;;;15.70;99.90;;;;;;4185251;28;20210;-78
2022/07/31 00:42:17;;;;;;;16.23;12.83;;;15.60;99.90;;;;;;4169144;28;20213;-79
2022/07/31 00:44:20;;;;;;;18.13;13.43;;;15.70;99.90;;;;;;4212062;22;20244;-81
2022/07/31 00:46:22;;;;;;;15.97;12.80;;;15.60;99.90;;;;;;4196373;28;20210;-81
2022/07/31 00:48:24;;;;;;;15.37;12.77;;;15.60;99.90;;;;;;4197968;28;20199;-81
2022/07/31 00:50:26;;;;;;;16.17;13.40;;;15.60;99.90;;;;;;4196028;28;20226;-81
2022/07/31 00:52:28;;;;;;;18.20;13.17;;;15.70;99.90;;;;;;4195083;28;20226;-81
2022/07/31 00:54:30;;;;;;;16.07;12.80;;;15.50;99.90;;;;;;4179295;28;20329;-81
2022/07/31 00:56:33;;;;;;;17.70;13.73;;;15.50;99.90;;;;;;4166277;28;20203;-79
2022/07/31 00:58:35;;;;;;;16.50;12.93;;;15.60;99.90;;;;;;4177679;28;20256;-78
2022/07/31 01:00:37;;;;;;;15.43;12.90;;;15.50;99.90;;;;;;4178161;28;20783;-79
2022/07/31 01:02:39;;;;;;;15.90;12.93;;;15.50;99.90;;;;;;4178772;28;20208;-79
2022/07/31 01:04:41;;;;;;;16.27;12.50;;;15.50;99.90;;;;;;4175468;28;20227;-79
2022/07/31 01:06:43;;;;;;;17.00;12.87;;;15.50;99.90;;;;;;4175862;28;20273;-78
2022/07/31 01:08:45;;;;;;;15.93;12.33;;;15.50;99.90;;;;;;4177234;28;20218;-78
2022/07/31 01:10:56;;;;;;;15.63;12.77;;;15.40;99.90;;;;;;4195554;28;20210;-79
2022/07/31 01:13:07;;;;;;;14.90;12.43;;;15.50;99.90;;;;;;4178132;28;20297;-78
2022/07/31 01:15:11;;;;;;;15.83;12.37;;;15.40;99.90;;;;;;4179687;28;20242;-79
2022/07/31 01:17:15;;;;;;;16.77;11.97;;;15.40;99.90;;;;;;4198475;28;20211;-78
2022/07/31 01:19:23;;;;;;;14.43;11.80;;;15.40;99.90;;;;;;4173035;28;20211;-79
2022/07/31 01:21:31;;;;;;;16.43;12.60;;;15.40;99.90;;;;;;4181256;28;20276;-78
2022/07/31 01:24:08;;;;;;;16.87;13.07;;;15.40;99.90;;;;;;4197850;28;20208;-79
2022/07/31 01:26:20;;;;;;;16.80;13.00;;;15.30;99.90;;;;;;4180823;28;20256;-79
2022/07/31 01:28:40;;;;;;;16.40;13.13;;;15.30;99.90;;;;;;4200789;28;20260;-79
2022/07/31 01:30:48;;;;;;;14.27;11.60;;;15.30;99.90;;;;;;4197719;28;20207;-79
2022/07/31 01:32:53;;;;;;;15.30;12.80;;;15.30;99.90;;;;;;4180805;28;20248;-78
2022/07/31 01:35:09;;;;;;;16.47;13.30;;;15.20;99.90;;;;;;4196583;28;20976;-79
2022/07/31 01:37:19;;;;;;;16.57;12.77;;;15.30;99.90;;;;;;4181586;28;20207;-79
2022/07/31 01:39:21;;;;;;;15.60;12.70;;;15.30;99.90;;;;;;4198719;28;20233;-78
2022/07/31 01:41:29;;;;;;;16.80;12.93;;;15.20;99.90;;;;;;4174969;28;20273;-79
2022/07/31 01:43:36;;;;;;;16.87;13.33;;;15.20;99.90;;;;;;4174998;28;20298;-78
2022/07/31 01:45:42;;;;;;;21.07;12.33;;;15.20;99.90;;;;;;4196174;28;20228;-78
2022/07/31 01:47:46;;;;;;;17.60;13.50;;;15.20;99.90;;;;;;4178550;28;20311;-79
2022/07/31 01:49:50;;;;;;;16.60;13.50;;;15.20;99.90;;;;;;4179368;28;20219;-79
2022/07/31 01:51:52;;;;;;;19.07;13.87;;;15.20;99.90;;;;;;4196084;28;20210;-79
2022/07/31 01:53:56;;;;;;;16.67;13.20;;;15.20;99.90;;;;;;4170757;28;20231;-78
2022/07/31 01:55:59;;;;;;;16.23;12.83;;;15.20;99.90;;;;;;4177949;28;20241;-78
2022/07/31 01:58:02;;;;;;;16.30;13.10;;;15.10;99.90;;;;;;4196298;28;20210;-78
2022/07/31 02:00:07;;;;;;;17.47;13.17;;;15.10;99.90;;;;;;4195092;28;20279;-78
2022/07/31 02:02:11;;;;;;;16.60;13.27;;;15.10;99.90;;;;;;4178796;28;20707;-79
2022/07/31 02:04:14;;;;;;;16.93;13.63;;;15.10;99.90;;;;;;4196077;28;20232;-78
2022/07/31 02:06:19;;;;;;;16.23;13.63;;;15.10;99.90;;;;;;4172803;28;20215;-78
2022/07/31 02:08:22;;;;;;;16.33;12.50;;;15.10;99.90;;;;;;4178874;28;20218;-78
2022/07/31 02:10:25;;;;;;;18.70;13.77;;;15.10;99.90;;;;;;4212146;28;20271;-78
2022/07/31 02:12:28;;;;;;;14.83;12.50;;;15.10;99.90;;;;;;4197888;28;20313;-79
2022/07/31 02:14:30;;;;;;;15.93;12.87;;;15.10;99.90;;;;;;4172077;28;20243;-78
2022/07/31 02:16:32;;;;;;;17.43;13.40;;;15.00;99.90;;;;;;4175223;28;20231;-79
2022/07/31 02:18:37;;;;;;;17.33;13.50;;;15.00;99.90;;;;;;4193860;28;20210;-79
2022/07/31 02:20:39;;;;;;;16.77;13.23;;;15.00;99.90;;;;;;4173202;28;20206;-79
2022/07/31 02:22:41;;;;;;;16.67;13.23;;;15.00;99.90;;;;;;4197179;28;20217;-79
2022/07/31 02:24:43;;;;;;;17.00;12.87;;;15.00;99.90;;;;;;4173164;28;20898;-79
2022/07/31 02:26:47;;;;;;;17.60;13.53;;;15.00;99.90;;;;;;4196694;28;20241;-79
2022/07/31 02:28:49;;;;;;;16.07;13.30;;;14.90;99.90;;;;;;4199521;28;20232;-79
2022/07/31 02:30:52;;;;;;;18.23;14.57;;;14.90;99.90;;;;;;4180550;28;20212;-79
2022/07/31 02:32:55;;;;;;;16.53;13.80;;;14.90;99.90;;;;;;4170469;28;20321;-79
2022/07/31 02:35:01;;;;;;;21.10;14.40;;;14.90;99.90;;;;;;4197120;28;20225;-79
2022/07/31 02:37:04;;;;;;;16.57;14.23;;;14.90;99.90;;;;;;4198145;28;20241;-79
2022/07/31 02:39:07;;;;;;;16.13;13.27;;;14.90;99.90;;;;;;4198086;28;20210;-79
2022/07/31 02:41:11;;;;;;;16.50;13.37;;;14.90;99.90;;;;;;4190789;28;20259;-79
2022/07/31 02:43:14;;;;;;;18.80;14.37;;;14.90;99.90;;;;;;4196891;28;20207;-78
2022/07/31 02:45:19;;;;;;;17.63;13.53;;;14.80;99.90;;;;;;4197538;28;20237;-79
2022/07/31 02:47:21;;;;;;;18.20;13.40;;;14.80;99.90;;;;;;4197466;28;20213;-78
2022/07/31 02:49:23;;;;;;;18.73;14.07;;;14.80;99.90;;;;;;4175271;28;20205;-79
2022/07/31 02:51:27;;;;;;;16.77;12.73;;;14.80;99.90;;;;;;4180256;28;20297;-79
2022/07/31 02:53:30;;;;;;;18.37;13.43;;;14.80;99.90;;;;;;4175684;28;20223;-79
2022/07/31 02:55:33;;;;;;;17.60;13.57;;;14.80;99.90;;;;;;4177454;28;20633;-79
2022/07/31 02:57:35;;;;;;;16.27;13.17;;;14.80;99.90;;;;;;4197213;28;20213;-79
2022/07/31 02:59:38;;;;;;;18.33;13.13;;;14.80;99.90;;;;;;4177290;28;20242;-79
2022/07/31 03:01:39;;;;;;;17.90;14.37;;;14.80;99.90;;;;;;4177990;28;20214;-79
2022/07/31 03:03:42;;;;;;;19.77;14.67;;;14.70;99.90;;;;;;4180142;28;20234;-79
2022/07/31 03:05:43;;;;;;;18.87;14.53;;;14.80;99.90;;;;;;4178535;28;20223;-79
2022/07/31 03:07:47;;;;;;;19.13;15.47;;;14.70;99.90;;;;;;4199552;28;20206;-79
2022/07/31 03:09:49;;;;;;;20.37;15.27;;;14.70;99.90;;;;;;4202800;28;20276;-79
2022/07/31 03:11:51;;;;;;;22.83;16.20;;;14.70;99.90;;;;;;4181738;28;20246;-79
2022/07/31 03:13:57;;;;;;;20.60;15.97;;;14.70;99.90;;;;;;4186184;28;20340;-79
2022/07/31 03:15:59;;;;;;;19.87;15.70;;;14.70;99.90;;;;;;4195929;28;20267;-79
2022/07/31 03:18:04;;;;;;;19.00;14.57;;;14.70;99.90;;;;;;4179244;28;20218;-79
2022/07/31 03:20:07;;;;;;;18.87;14.97;;;14.60;99.90;;;;;;4197126;28;20203;-79
2022/07/31 03:22:09;;;;;;;19.50;15.03;;;14.60;99.90;;;;;;4169198;28;20882;-78
2022/07/31 03:24:13;;;;;;;19.90;14.43;;;14.60;99.90;;;;;;4198044;28;20234;-79
2022/07/31 03:26:16;;;;;;;19.60;15.43;;;14.60;99.90;;;;;;4194627;28;20263;-79
2022/07/31 03:28:19;;;;;;;18.80;15.03;;;14.60;99.90;;;;;;4197243;28;20252;-79
2022/07/31 03:30:23;;;;;;;20.33;15.00;;;14.60;99.90;;;;;;4195327;28;20206;-79
2022/07/31 03:32:25;;;;;;;20.37;14.63;;;14.60;99.90;;;;;;4172488;28;20712;-79
2022/07/31 03:34:30;;;;;;;24.90;15.67;;;14.60;99.90;;;;;;4178923;28;20721;-79
2022/07/31 03:36:32;;;;;;;20.33;15.03;;;14.50;99.90;;;;;;4196853;28;20243;-79
2022/07/31 03:38:34;;;;;;;21.10;15.33;;;14.50;99.90;;;;;;4196529;28;20767;-79
2022/07/31 03:40:37;;;;;;;18.93;14.50;;;14.50;99.90;;;;;;4179253;28;20309;-78
2022/07/31 03:42:39;;;;;;;20.87;15.37;;;14.50;99.90;;;;;;4174425;28;20573;-79
2022/07/31 03:44:43;;;;;;;19.63;15.07;;;14.50;99.90;;;;;;4195426;28;20244;-79
2022/07/31 03:46:45;;;;;;;19.20;14.60;;;14.50;99.90;;;;;;4172283;28;20272;-79
2022/07/31 03:48:50;;;;;;;18.00;14.23;;;14.50;99.90;;;;;;4196924;28;20571;-79
2022/07/31 03:50:52;;;;;;;20.83;14.53;;;14.40;99.90;;;;;;4196251;28;20613;-79
2022/07/31 03:52:56;;;;;;;22.57;15.40;;;14.40;99.90;;;;;;4196215;28;20229;-79
2022/07/31 03:54:58;;;;;;;19.97;15.47;;;14.40;99.90;;;;;;4180738;28;20298;-79
2022/07/31 03:57:01;;;;;;;16.67;13.50;;;14.40;99.90;;;;;;4202466;28;20252;-79
2022/07/31 03:59:04;;;;;;;16.60;13.47;;;14.50;99.90;;;;;;4202717;28;20209;-79
2022/07/31 04:01:07;;;;;;;18.90;14.50;;;14.50;99.90;;;;;;4173812;28;20652;-79
2022/07/31 04:03:11;;;;;;;18.80;14.37;;;14.40;99.90;;;;;;4175000;28;20215;-79
2022/07/31 04:05:13;;;;;;;20.97;15.13;;;14.40;99.90;;;;;;4196894;28;20671;-78
2022/07/31 04:07:16;;;;;;;20.67;15.93;;;14.40;99.90;;;;;;4196322;28;20206;-78
2022/07/31 04:09:19;;;;;;;19.47;15.67;;;14.40;99.90;;;;;;4195500;28;20263;-78
2022/07/31 04:11:20;;;;;;;19.90;15.57;;;14.40;99.90;;;;;;4172948;28;20215;-78
2022/07/31 04:13:24;;;;;;;20.57;15.57;;;14.40;99.90;;;;;;4178321;28;20237;-78
2022/07/31 04:15:26;;;;;;;19.90;14.90;;;14.40;99.90;;;;;;4178051;28;20778;-78
2022/07/31 04:17:28;;;;;;;19.73;15.10;;;14.40;99.90;;;;;;4195052;28;20201;-78
2022/07/31 04:19:30;;;;;;;18.07;14.53;;;14.40;99.90;;;;;;4169668;28;20230;-78
2022/07/31 04:21:32;;;;;;;18.23;14.03;;;14.40;99.90;;;;;;4195616;28;20748;-79
2022/07/31 04:23:34;;;;;;;17.27;14.03;;;14.40;99.90;;;;;;4169644;28;20206;-78
2022/07/31 04:25:36;;;;;;;18.00;14.23;;;14.40;99.90;;;;;;4169124;28;20248;-78
2022/07/31 04:27:38;;;;;;;21.07;15.03;;;14.40;99.90;;;;;;4175053;28;20592;-79
2022/07/31 04:29:41;;;;;;;16.97;14.03;;;14.40;99.90;;;;;;4175081;28;20208;-78
2022/07/31 04:31:43;;;;;;;18.17;14.03;;;14.50;99.90;;;;;;4175904;28;20575;-79
2022/07/31 04:33:45;;;;;;;17.40;13.70;;;14.40;99.90;;;;;;4195408;28;20236;-78
2022/07/31 04:35:47;;;;;;;18.57;14.27;;;14.40;99.90;;;;;;4168414;28;20210;-79
2022/07/31 04:37:49;;;;;;;19.30;14.80;;;14.40;99.90;;;;;;4194811;28;20205;-79
2022/07/31 04:39:51;;;;;;;18.60;14.30;;;14.40;99.90;;;;;;4177651;28;20205;-79
2022/07/31 04:41:53;;;;;;;18.63;14.53;;;14.40;99.90;;;;;;4177143;28;20213;-79
2022/07/31 04:43:56;;;;;;;19.00;15.03;;;14.40;99.90;;;;;;4195334;28;20229;-79
2022/07/31 04:45:59;;;;;;;19.87;15.27;;;14.40;99.90;;;;;;4195515;28;20684;-79
2022/07/31 04:48:02;;;;;;;19.60;15.73;;;14.40;99.90;;;;;;4195507;28;20915;-79
2022/07/31 04:50:05;;;;;;;20.43;15.27;;;14.50;99.90;;;;;;4175193;28;20217;-78
2022/07/31 04:52:07;;;;;;;18.60;14.87;;;14.40;99.90;;;;;;4170507;28;20746;-79
2022/07/31 04:54:10;;;;;;;21.67;15.90;;;14.50;99.90;;;;;;4194017;28;20661;-79
2022/07/31 04:58:33;;;;;;;19.40;15.43;;;14.50;99.90;;;;;;4194369;28;20675;-79
2022/07/31 05:00:35;;;;;;;22.00;16.57;;;14.50;99.90;;;;;;4195046;28;20583;-78
2022/07/31 05:02:39;;;;;;;20.00;15.60;;;14.50;99.90;;;;;;4176887;28;20273;-79
2022/07/31 05:04:41;;;;;;;20.00;15.90;;;14.50;99.90;;;;;;4167374;28;20232;-78
2022/07/31 05:06:45;;;;;;;20.20;15.83;;;14.50;99.90;;;;;;4194234;28;20210;-78
2022/07/31 05:08:47;;;;;;;21.33;16.57;;;14.50;99.90;;;;;;4169530;28;20302;-79
2022/07/31 05:13:08;;;;;;;19.90;16.17;;;14.60;99.90;;;;;;4195106;28;20725;-78
2022/07/31 05:15:10;;;;;;;21.50;16.30;;;14.60;99.90;;;;;;4194203;28;20309;-78
2022/07/31 05:17:12;;;;;;;20.50;16.17;;;14.60;99.90;;;;;;4177428;28;20297;-79
2022/07/31 05:19:16;;;;;;;21.90;15.77;;;14.60;99.90;;;;;;4190857;28;20260;-78
2022/07/31 05:21:18;;;;;;;18.67;14.77;;;14.70;99.90;;;;;;4194100;28;20209;-78
2022/07/31 05:23:21;;;;;;;21.23;15.60;;;14.70;99.90;;;;;;4193867;28;20203;-79
2022/07/31 05:25:23;;;;;;;21.73;16.57;;;14.70;99.90;;;;;;4195609;28;20241;-78
2022/07/31 05:27:24;;;;;;;24.43;17.50;;;14.70;99.90;;;;;;4195779;28;20715;-78
2022/07/31 05:29:26;;;;;;;23.23;16.80;;;14.80;99.90;;;;;;4177027;28;20855;-79
2022/07/31 05:31:28;;;;;;;21.47;16.87;;;14.80;99.90;;;;;;4177157;28;20292;-79
2022/07/31 05:33:30;;;;;;;23.27;17.57;;;14.80;99.90;;;;;;4176999;28;20280;-79
2022/07/31 05:35:34;;;;;;;20.63;16.17;;;14.90;99.90;;;;;;4176841;28;20757;-78
2022/07/31 05:37:38;;;;;;;19.00;15.20;;;14.90;99.90;;;;;;4194898;28;20220;-79
2022/07/31 05:39:40;;;;;;;22.77;16.73;;;15.00;99.90;;;;;;4176719;28;20223;-79
2022/07/31 05:41:42;;;;;;;22.83;16.67;;;15.00;99.90;;;;;;4196666;28;20664;-79
2022/07/31 05:43:44;;;;;;;20.13;16.33;;;15.00;99.90;;;;;;4194701;28;20265;-79
2022/07/31 05:45:46;;;;;;;22.17;17.07;;;15.10;99.90;;;;;;4172751;28;20236;-79
2022/07/31 05:47:48;;;;;;;20.90;16.50;;;15.10;99.90;;;;;;4193825;28;20838;-79
2022/07/31 05:49:50;;;;;;;22.27;15.93;;;15.20;99.90;;;;;;4174690;28;20764;-79
2022/07/31 05:51:53;;;;;;;18.90;15.37;;;15.20;99.90;;;;;;4183465;28;20313;-78
2022/07/31 05:53:55;;;;;;;19.47;15.80;;;15.20;99.90;;;;;;4194091;28;20246;-79
2022/07/31 05:55:57;;;;;;;20.53;16.40;;;15.30;99.90;;;;;;4193140;28;20217;-79
2022/07/31 05:57:59;;;;;;;19.70;15.53;;;15.30;99.90;;;;;;4194788;28;20704;-79
2022/07/31 06:00:01;;;;;;;22.03;16.93;;;15.40;99.90;;;;;;4168550;28;20244;-79
2022/07/31 06:02:03;;;;;;;18.47;14.57;;;15.50;99.90;;;;;;4168639;28;20244;-79
2022/07/31 06:04:05;;;;;;;18.97;15.50;;;15.60;99.90;;;;;;4195572;28;20261;-78
2022/07/31 06:06:07;;;;;;;18.23;15.10;;;15.60;99.90;;;;;;4196395;28;20205;-78
2022/07/31 06:08:11;;;;;;;17.70;14.33;;;15.70;99.90;;;;;;4196683;28;20248;-79
2022/07/31 06:10:13;;;;;;;16.90;13.87;;;15.80;99.90;;;;;;4182021;28;20232;-79
2022/07/31 06:12:15;;;;;;;16.70;14.13;;;15.90;99.90;;;;;;4177961;28;20802;-79
2022/07/31 06:14:16;;;;;;;16.27;13.20;;;16.00;99.90;;;;;;4179282;28;20336;-79
2022/07/31 06:16:18;;;;;;;21.73;14.93;;;16.20;99.90;;;;;;4197540;28;20209;-78
2022/07/31 06:18:22;;;;;;;17.17;13.37;;;16.30;99.90;;;;;;4178663;28;20709;-79
2022/07/31 06:20:24;;;;;;;15.43;13.23;;;16.40;99.90;;;;;;4180723;28;20215;-79
2022/07/31 06:22:26;;;;;;;14.53;12.33;;;16.50;99.90;;;;;;4176299;28;20277;-78
2022/07/31 06:24:30;;;;;;;17.43;12.97;;;16.60;99.90;;;;;;4180218;28;20240;-79
2022/07/31 06:26:32;;;;;;;20.00;14.03;;;16.70;99.90;;;;;;4194232;28;20259;-79
2022/07/31 06:28:34;;;;;;;14.97;12.40;;;16.80;99.90;;;;;;4199448;28;20198;-79
2022/07/31 06:30:37;;;;;;;14.83;12.07;;;16.80;99.90;;;;;;4171511;28;20320;-79
2022/07/31 06:32:39;;;;;;;14.40;12.10;;;17.00;99.90;;;;;;4195645;28;20212;-78
2022/07/31 06:34:41;;;;;;;15.43;11.67;;;17.10;99.90;;;;;;4170619;28;20243;-78
2022/07/31 06:36:43;;;;;;;13.83;11.70;;;17.20;99.90;;;;;;4198319;28;20198;-78
2022/07/31 06:38:45;;;;;;;14.30;11.87;;;17.30;99.90;;;;;;4196678;28;20201;-78
2022/07/31 06:40:49;;;;;;;14.83;12.27;;;17.40;99.90;;;;;;4175487;28;20409;-78
2022/07/31 06:42:51;;;;;;;13.80;10.77;;;17.40;99.90;;;;;;4177955;28;20214;-78
2022/07/31 06:49:06;;;;;;;13.27;11.17;;;17.70;99.90;;;;;;4207069;28;20243;-78
2022/07/31 06:51:08;;;;;;;11.93;10.57;;;17.80;99.90;;;;;;4206026;28;20244;-78
2022/07/31 06:53:10;;;;;;;12.33;10.60;;;17.90;99.90;;;;;;4205449;28;20224;-78
2022/07/31 06:55:12;;;;;;;11.40;9.20;;;17.90;99.90;;;;;;4194490;28;20250;-79
2022/07/31 06:57:15;;;;;;;13.43;11.27;;;18.00;99.90;;;;;;4173507;28;20250;-79
2022/07/31 06:59:17;;;;;;;12.70;10.00;;;18.10;99.90;;;;;;4187014;28;20690;-78
2022/07/31 07:01:19;;;;;;;11.73;9.83;;;18.10;99.90;;;;;;4187358;28;20211;-78
2022/07/31 07:03:21;;;;;;;11.03;9.53;;;18.20;99.90;;;;;;4187710;28;20607;-78
2022/07/31 07:05:23;;;;;;;10.93;9.83;;;18.20;99.90;;;;;;4168603;28;20216;-79
2022/07/31 07:07:25;;;;;;;12.60;9.93;;;18.30;99.90;;;;;;4188508;28;20700;-79
2022/07/31 07:09:27;;;;;;;13.40;10.53;;;18.30;99.90;;;;;;4186863;28;20207;-79
2022/07/31 07:11:29;;;;;;;11.53;10.00;;;18.30;99.90;;;;;;4189118;28;20223;-79
2022/07/31 07:13:32;;;;;;;11.23;9.63;;;18.40;99.90;;;;;;4171870;28;20239;-79
2022/07/31 07:15:34;;;;;;;13.30;10.17;;;18.40;99.90;;;;;;4188047;28;20325;-79
2022/07/31 07:17:36;;;;;;;11.23;10.10;;;18.40;99.90;;;;;;4191720;28;20224;-79
2022/07/31 07:19:40;;;;;;;10.87;9.53;;;18.40;99.90;;;;;;4174104;28;20200;-79
2022/07/31 07:21:42;;;;;;;9.80;8.57;;;18.50;99.90;;;;;;4188401;28;20209;-79
2022/07/31 07:23:44;;;;;;;10.43;9.23;;;18.50;99.90;;;;;;4187850;28;20299;-79
2022/07/31 07:25:46;;;;;;;10.83;9.37;;;18.50;99.90;;;;;;4169371;28;20229;-79
2022/07/31 07:27:48;;;;;;;12.23;9.27;;;18.50;99.90;;;;;;4188744;28;20219;-79
2022/07/31 07:29:51;;;;;;;10.20;8.83;;;18.50;99.90;;;;;;4165765;28;20228;-79
2022/07/31 07:31:53;;;;;;;11.27;8.97;;;18.60;99.90;;;;;;4182160;28;20217;-78
2022/07/31 07:33:55;;;;;;;11.73;9.13;;;18.60;99.90;;;;;;4189366;28;20769;-79
2022/07/31 07:35:57;;;;;;;11.50;8.87;;;18.60;99.90;;;;;;4188971;28;20243;-78
2022/07/31 07:37:59;;;;;;;11.43;9.67;;;18.60;99.90;;;;;;4186774;28;20229;-79
2022/07/31 07:40:01;;;;;;;12.63;9.70;;;18.60;99.90;;;;;;4188898;28;20284;-79
2022/07/31 07:42:03;;;;;;;12.30;9.47;;;18.70;99.90;;;;;;4168706;28;20215;-79
2022/07/31 07:44:06;;;;;;;13.53;9.63;;;18.70;99.90;;;;;;4184677;28;20467;-79
2022/07/31 07:46:09;;;;;;;12.40;9.40;;;18.70;99.90;;;;;;4185943;28;20204;-79
2022/07/31 07:48:11;;;;;;;12.07;9.90;;;18.70;99.90;;;;;;4187818;28;20214;-79
2022/07/31 07:50:14;;;;;;;12.17;9.57;;;18.80;99.90;;;;;;4169782;28;20215;-79
2022/07/31 07:52:16;;;;;;;13.20;9.17;;;18.80;99.90;;;;;;4172587;28;20237;-79
2022/07/31 07:54:18;;;;;;;10.03;8.60;;;18.90;99.90;;;;;;4190817;28;20231;-78
2022/07/31 07:56:20;;;;;;;9.80;8.80;;;19.00;99.90;;;;;;4191253;28;20293;-79
2022/07/31 07:58:22;;;;;;;10.23;8.63;;;19.00;99.90;;;;;;4191902;28;20247;-79
2022/07/31 08:00:24;;;;;;;10.23;8.37;;;19.10;99.90;;;;;;4192402;28;20238;-79
2022/07/31 08:02:27;;;;;;;12.40;9.37;;;19.20;99.90;;;;;;4187986;28;20228;-79
2022/07/31 08:04:29;;;;;;;9.53;8.40;;;19.20;99.90;;;;;;4183204;28;20271;-79
2022/07/31 08:06:31;;;;;;;9.27;7.97;;;19.30;99.90;;;;;;4184308;28;20237;-79
2022/07/31 08:08:33;;;;;;;8.53;7.67;;;19.40;99.90;;;;;;4185150;28;20217;-79
2022/07/31 08:10:35;;;;;;;10.60;8.17;;;19.50;99.90;;;;;;4188072;28;20216;-79
2022/07/31 08:12:37;;;;;;;11.03;8.03;;;19.50;99.90;;;;;;4193875;28;20206;-79
2022/07/31 08:14:39;;;;;;;9.07;8.17;;;19.50;99.90;;;;;;4188989;28;20872;-78
2022/07/31 08:16:41;;;;;;;10.40;8.27;;;19.60;99.90;;;;;;4184779;28;20248;-79
2022/07/31 08:18:44;;;;;;;12.40;8.40;;;19.70;99.90;;;;;;4184068;28;20229;-79
2022/07/31 08:20:46;;;;;;;12.73;8.23;;;19.70;99.90;;;;;;4166418;28;20809;-79
2022/07/31 08:22:48;;;;;;;10.77;8.60;;;19.80;99.90;;;;;;4182085;28;20212;-79
2022/07/31 08:24:50;;;;;;;10.10;7.83;;;19.80;99.90;;;;;;4183940;28;20237;-79
2022/07/31 08:29:11;;;;;;;10.37;8.23;;;19.90;99.90;;;;;;4165815;28;20211;-79
2022/07/31 08:31:14;;;;;;;9.63;7.97;;;19.90;99.90;;;;;;4183471;28;20259;-79
2022/07/31 08:33:16;;;;;;;9.70;8.53;;;20.00;99.90;;;;;;4183132;28;20210;-78
2022/07/31 08:35:19;;;;;;;8.90;8.00;;;20.00;99.90;;;;;;4182276;28;20229;-79
2022/07/31 08:37:21;;;;;;;10.33;8.30;;;20.10;99.90;;;;;;4166426;28;20214;-79
2022/07/31 08:39:23;;;;;;;10.00;7.87;;;20.10;99.90;;;;;;4165683;28;20249;-79
2022/07/31 08:41:25;;;;;;;10.33;8.33;;;20.20;99.90;;;;;;4184563;28;20237;-79
2022/07/31 08:43:27;;;;;;;10.60;8.43;;;20.20;99.90;;;;;;4165765;28;20589;-79
2022/07/31 08:45:30;;;;;;;8.53;7.73;;;20.20;99.90;;;;;;4184133;28;20234;-79
2022/07/31 08:47:35;;;;;;;11.17;8.63;;;20.30;99.90;;;;;;4183742;28;20242;-79
2022/07/31 08:49:40;;;;;;;9.40;7.83;;;20.30;99.90;;;;;;4165689;28;20306;-79
2022/07/31 08:51:44;;;;;;;9.63;7.97;;;20.40;99.90;;;;;;4180054;28;20292;-79
2022/07/31 08:53:49;;;;;;;8.87;7.43;;;20.40;99.90;;;;;;4179007;28;20863;-79
2022/07/31 08:55:52;;;;;;;8.67;7.57;;;20.50;99.90;;;;;;4152882;28;20599;-79
2022/07/31 08:57:54;;;;;;;9.87;7.70;;;20.50;99.90;;;;;;4161000;28;20882;-79
2022/07/31 08:59:56;;;;;;;8.67;7.77;;;20.60;99.90;;;;;;4178747;28;20242;-79
2022/07/31 09:01:58;;;;;;;9.03;7.13;;;20.60;99.90;;;;;;4161604;28;20244;-79
2022/07/31 09:04:00;;;;;;;9.67;7.43;;;20.60;99.90;;;;;;4161094;28;20213;-79
2022/07/31 09:06:03;;;;;;;10.13;7.53;;;20.70;99.90;;;;;;4178495;28;20674;-79
2022/07/31 09:08:06;;;;;;;9.33;7.83;;;20.70;99.90;;;;;;4161422;28;20235;-79
2022/07/31 09:10:19;;;;;;;11.13;7.00;;;20.70;99.90;;;;;;4179042;28;20969;-79
2022/07/31 09:12:29;;;;;;;8.47;7.20;;;20.80;99.90;;;;;;4177394;28;20957;-79
2022/07/31 09:14:33;;;;;;;7.70;6.60;;;20.80;99.90;;;;;;4177598;28;20266;-79
2022/07/31 09:16:46;;;;;;;9.13;6.73;;;20.90;99.90;;;;;;4178873;28;20217;-79
2022/07/31 09:18:55;;;;;;;8.17;6.23;;;20.90;99.90;;;;;;4179107;28;20300;-79
2022/07/31 09:20:59;;;;;;;9.93;6.57;;;20.90;99.90;;;;;;4169561;28;20251;-79
2022/07/31 09:23:06;;;;;;;6.87;5.87;;;21.00;99.90;;;;;;4177473;28;20214;-81
2022/07/31 09:25:11;;;;;;;7.77;6.23;;;21.10;99.90;;;;;;4178181;28;20251;-79
2022/07/31 09:27:16;;;;;;;8.07;6.17;;;21.10;99.90;;;;;;4178248;28;20731;-78
2022/07/31 09:29:18;;;;;;;8.40;5.87;;;21.20;99.90;;;;;;4160685;28;20211;-79
2022/07/31 09:31:20;;;;;;;8.90;6.03;;;21.30;99.90;;;;;;4177573;28;20578;-80
2022/07/31 09:33:22;;;;;;;6.80;6.00;;;21.30;99.90;;;;;;4178660;28;20293;-78
2022/07/31 09:35:24;;;;;;;6.27;5.50;;;21.40;99.90;;;;;;4177057;28;20270;-79
2022/07/31 09:37:26;;;;;;;6.47;5.70;;;21.40;99.90;;;;;;4164782;28;20210;-79
2022/07/31 09:39:29;;;;;;;7.63;6.20;;;21.50;99.90;;;;;;4183811;28;20217;-79
2022/07/31 09:41:31;;;;;;;6.20;4.90;;;21.50;99.90;;;;;;4164843;28;20223;-79
2022/07/31 09:43:33;;;;;;;9.07;5.50;;;21.60;99.90;;;;;;4166344;28;20267;-80
2022/07/31 09:45:35;;;;;;;9.13;6.63;;;21.60;99.90;;;;;;4184064;28;20638;-80
2022/07/31 09:47:37;;;;;;;9.73;6.30;;;21.70;99.90;;;;;;4183303;28;20222;-80
2022/07/31 09:49:39;;;;;;;10.23;5.90;;;21.70;99.90;;;;;;4181888;28;20241;-79
2022/07/31 09:51:42;;;;;;;6.10;5.50;;;21.80;99.90;;;;;;4181784;28;20230;-79
2022/07/31 09:53:46;;;;;;;6.03;4.87;;;21.90;99.90;;;;;;4181516;28;20619;-79
2022/07/31 09:55:53;;;;;;;7.23;5.07;;;22.00;99.90;;;;;;4182280;28;20248;-79
2022/07/31 09:57:58;;;;;;;6.40;4.97;;;22.00;99.90;;;;;;4182363;28;20213;-78
2022/07/31 10:00:00;;;;;;;5.93;4.90;;;22.10;99.90;;;;;;4182323;28;20577;-80
2022/07/31 10:02:04;;;;;;;6.37;5.23;;;22.20;99.90;;;;;;4181885;28;20625;-79
2022/07/31 10:04:07;;;;;;;6.23;5.00;;;22.30;99.90;;;;;;4179459;28;20301;-78
2022/07/31 10:06:12;;;;;;;7.33;4.90;;;22.40;99.90;;;;;;4181235;28;20655;-78
2022/07/31 10:08:16;;;;;;;7.23;4.87;;;22.50;99.90;;;;;;4181570;28;20298;-79
2022/07/31 10:10:18;;;;;;;5.93;3.87;;;22.50;99.90;;;;;;4183246;28;20210;-79
2022/07/31 10:12:22;;;;;;;6.77;3.93;;;22.60;99.90;;;;;;4165283;28;20303;-78
2022/07/31 10:14:30;;;;;;;5.83;3.30;;;22.60;99.90;;;;;;4182924;28;20234;-78
2022/07/31 10:16:36;;;;;;;6.07;2.90;;;22.70;99.80;;;;;;4157395;28;20309;-78
2022/07/31 10:18:40;;;;;;;3.93;2.97;;;22.80;99.20;;;;;;4181519;28;20270;-78
2022/07/31 10:20:49;;;;;;;4.67;3.00;;;22.80;99.90;;;;;;4182445;28;20578;-79
2022/07/31 10:22:58;;;;;;;3.97;3.30;;;22.90;99.20;;;;;;4162572;28;20213;-78
2022/07/31 10:25:01;;;;;;;4.83;3.20;;;22.90;99.90;;;;;;4180957;28;20227;-79
2022/07/31 10:27:04;;;;;;;5.03;3.40;;;22.90;99.90;;;;;;4182083;28;20207;-79
2022/07/31 10:29:07;;;;;;;8.67;3.47;;;22.90;98.60;;;;;;4185434;28;20207;-79
2022/07/31 10:31:12;;;;;;;4.17;2.80;;;23.00;99.50;;;;;;4182144;28;20206;-78
2022/07/31 10:33:14;;;;;;;5.77;3.47;;;23.10;95.40;;;;;;4181836;28;20211;-78
2022/07/31 10:35:17;;;;;;;5.40;3.53;;;23.10;96.40;;;;;;4182838;28;20652;-78
2022/07/31 10:37:22;;;;;;;5.27;3.80;;;23.20;98.20;;;;;;4163577;28;20215;-78
2022/07/31 10:39:31;;;;;;;5.03;3.30;;;23.20;99.90;;;;;;4181195;28;20226;-78
2022/07/31 10:41:41;;;;;;;10.47;3.47;;;23.20;99.90;;;;;;4182323;28;20276;-78